createdAt,value
2023-04-29T00:00:47.134Z,15.43
2023-04-29T00:10:49.782Z,16.60
2023-04-29T00:20:51.977Z,20.48
2023-04-29T00:30:54.202Z,20.75
2023-04-29T00:40:56.837Z,21.80
2023-04-29T00:50:59.357Z,22.63
2023-04-29T01:13:07.217Z,24.70
2023-04-29T01:23:10.116Z,25.40
2023-04-29T01:33:57.789Z,26.67
2023-04-29T01:44:01.711Z,26.85
2023-04-29T01:54:05.406Z,28.58
2023-04-29T02:04:07.867Z,31.13
2023-04-29T02:14:12.545Z,31.90
2023-04-29T02:24:14.843Z,30.13
2023-04-29T02:34:17.190Z,33.03
2023-04-29T02:44:19.305Z,30.97
2023-04-29T02:54:21.498Z,26.67
2023-04-29T03:04:25.530Z,27.70
2023-04-29T03:14:28.046Z,23.90
2023-04-29T03:24:30.413Z,22.93
2023-04-29T03:34:43.531Z,20.70
2023-04-29T03:45:14.888Z,21.63
2023-04-29T03:55:18.113Z,21.95
2023-04-29T04:05:21.412Z,20.48
2023-04-29T04:15:28.955Z,20.40
2023-04-29T04:25:32.963Z,20.48
2023-04-29T04:35:59.488Z,20.80
2023-04-29T04:46:12.878Z,20.75
2023-04-29T04:56:19.669Z,21.00
2023-04-29T05:06:22.242Z,20.83
2023-04-29T05:16:25.741Z,20.52
2023-04-29T05:26:28.109Z,20.75
2023-04-29T05:36:34.773Z,19.43
2023-04-29T05:46:37.733Z,20.63
2023-04-29T05:56:40.425Z,21.40
2023-04-29T06:06:43.588Z,20.23
2023-04-29T06:16:53.670Z,18.47
2023-04-29T06:26:55.788Z,20.63
2023-04-29T06:37:01.431Z,22.20
2023-04-29T06:47:24.972Z,19.87
2023-04-29T06:57:39.973Z,18.93
2023-04-29T07:07:42.100Z,19.23
2023-04-29T07:17:44.452Z,18.80
2023-04-29T07:27:46.817Z,19.60
2023-04-29T07:37:49.127Z,19.63
2023-04-29T07:47:51.380Z,19.77
2023-04-29T07:57:53.708Z,21.08
2023-04-29T08:07:56.074Z,22.30
2023-04-29T08:18:00.966Z,25.87
2023-04-29T08:28:03.067Z,25.83
2023-04-29T08:38:06.819Z,25.87
2023-04-29T08:48:09.590Z,28.40
2023-04-29T08:58:12.973Z,28.10
2023-04-29T09:08:15.050Z,28.23
2023-04-29T09:18:41.910Z,29.23
2023-04-29T09:28:45.050Z,28.17
2023-04-29T09:38:58.052Z,26.97
2023-04-29T09:49:00.940Z,25.97
2023-04-29T09:59:09.443Z,24.30
2023-04-29T10:09:16.359Z,24.48
2023-04-29T10:19:35.186Z,21.70
2023-04-29T10:29:38.722Z,22.05
2023-04-29T10:40:00.880Z,22.90
2023-04-29T10:50:04.610Z,20.35
2023-04-29T11:00:07.337Z,21.83
2023-04-29T11:10:09.510Z,20.40
2023-04-29T11:20:14.165Z,18.57
2023-04-29T11:30:16.982Z,16.65
2023-04-29T11:40:19.253Z,16.13
2023-04-29T11:50:21.386Z,15.05
2023-04-29T12:00:24.629Z,14.35
2023-04-29T12:10:26.895Z,12.82
2023-04-29T12:20:29.269Z,13.50
2023-04-29T12:30:34.598Z,12.02
2023-04-29T12:40:36.867Z,11.93
2023-04-29T12:50:39.642Z,12.05
2023-04-29T13:00:41.783Z,12.07
2023-04-29T13:10:44.208Z,10.88
2023-04-29T13:20:46.336Z,11.57
2023-04-29T13:30:48.609Z,11.38
2023-04-29T13:40:55.135Z,11.25
2023-04-29T14:11:09.252Z,8.93
2023-04-29T14:21:11.771Z,8.38
2023-04-29T14:31:15.149Z,8.05
2023-04-29T14:41:17.315Z,8.15
2023-04-29T14:51:19.422Z,10.43
2023-04-29T15:01:21.619Z,8.52
2023-04-29T15:11:24.116Z,8.35
2023-04-29T15:21:27.032Z,6.60
2023-04-29T15:31:30.883Z,6.00
2023-04-29T15:41:33.158Z,5.75
2023-04-29T15:51:35.313Z,6.07
2023-04-29T16:01:37.701Z,6.03
2023-04-29T16:11:39.981Z,6.38
2023-04-29T16:21:45.489Z,5.97
2023-04-29T16:31:47.673Z,5.88
2023-04-29T16:41:49.794Z,6.30
2023-04-29T16:51:52.310Z,6.43
2023-04-29T17:01:55.283Z,6.57
2023-04-29T17:11:57.971Z,6.40
2023-04-29T17:22:00.050Z,5.32
2023-04-29T17:32:09.873Z,5.13
2023-04-29T17:42:12.012Z,5.43
2023-04-29T17:52:15.099Z,6.35
2023-04-29T18:02:17.122Z,6.55
2023-04-29T18:12:19.232Z,5.55
2023-04-29T18:22:21.304Z,5.43
2023-04-29T18:32:23.534Z,6.05
2023-04-29T18:42:25.910Z,5.22
2023-04-29T18:52:27.972Z,5.53
2023-04-29T19:02:30.701Z,5.55
2023-04-29T19:12:32.831Z,5.18
2023-04-29T19:22:35.014Z,6.10
2023-04-29T19:32:37.217Z,6.32
2023-04-29T19:42:40.602Z,6.78
2023-04-29T19:52:42.801Z,6.65
2023-04-29T20:02:45.147Z,6.83
2023-04-29T20:12:47.530Z,7.30
2023-04-29T20:22:49.740Z,6.73
2023-04-29T20:32:52.177Z,7.10
2023-04-29T20:42:54.197Z,8.02
2023-04-29T20:52:56.712Z,5.97
2023-04-29T21:02:58.864Z,5.90
2023-04-29T21:13:01.201Z,6.30
2023-04-29T21:23:03.348Z,5.70
2023-04-29T21:33:05.557Z,6.13
2023-04-29T21:43:08.671Z,5.97
2023-04-29T21:53:13.761Z,6.90
2023-04-29T22:03:17.407Z,6.10
2023-04-29T22:13:19.477Z,5.90
2023-04-29T22:23:22.575Z,5.07
2023-04-29T22:33:24.634Z,5.03
2023-04-29T22:43:26.772Z,4.73
2023-04-29T22:53:28.856Z,4.80
2023-04-29T23:03:30.885Z,4.83
2023-04-29T23:13:33.015Z,5.00
2023-04-29T23:23:35.145Z,4.93
2023-04-29T23:33:37.234Z,5.57
2023-04-29T23:43:39.620Z,5.57
2023-04-29T23:53:41.753Z,5.90
